sensor_id;sensor_type;location;lat;lon;timestamp;pressure;altitude;pressure_sealevel;temperature;humidity
113;BME280;45999;48.808;9.182;2022-12-29T00:01:37;97699.94;;;8.55;82.84
113;BME280;45999;48.808;9.182;2022-12-29T00:04:04;97692.13;;;8.66;83.01
113;BME280;45999;48.808;9.182;2022-12-29T00:06:31;97690.09;;;8.62;83.51
113;BME280;45999;48.808;9.182;2022-12-29T00:08:58;97688.44;;;8.67;82.10
113;BME280;45999;48.808;9.182;2022-12-29T00:11:26;97683.94;;;8.68;82.81
113;BME280;45999;48.808;9.182;2022-12-29T00:13:53;97676.91;;;8.80;82.19
113;BME280;45999;48.808;9.182;2022-12-29T00:16:37;97667.03;;;8.69;83.94
113;BME280;45999;48.808;9.182;2022-12-29T00:19:04;97658.63;;;8.72;83.73
113;BME280;45999;48.808;9.182;2022-12-29T00:21:31;97657.06;;;8.64;83.43
113;BME280;45999;48.808;9.182;2022-12-29T00:24:17;97658.72;;;8.83;81.75
113;BME280;45999;48.808;9.182;2022-12-29T00:29:46;97653.72;;;9.00;80.95
113;BME280;45999;48.808;9.182;2022-12-29T00:32:29;97651.22;;;9.05;80.84
113;BME280;45999;48.808;9.182;2022-12-29T00:35:21;97656.81;;;9.15;79.28
113;BME280;45999;48.808;9.182;2022-12-29T00:37:48;97638.47;;;9.13;79.87
113;BME280;45999;48.808;9.182;2022-12-29T00:40:33;97638.63;;;9.18;79.59
113;BME280;45999;48.808;9.182;2022-12-29T00:43:25;97640.75;;;9.28;79.76
113;BME280;45999;48.808;9.182;2022-12-29T00:46:09;97634.78;;;9.14;80.29
113;BME280;45999;48.808;9.182;2022-12-29T00:48:36;97639.28;;;9.32;78.93
113;BME280;45999;48.808;9.182;2022-12-29T00:51:20;97637.22;;;9.34;78.03
113;BME280;45999;48.808;9.182;2022-12-29T00:53:46;97632.19;;;9.26;80.06
113;BME280;45999;48.808;9.182;2022-12-29T00:56:12;97631.47;;;9.19;80.85
113;BME280;45999;48.808;9.182;2022-12-29T00:58:39;97640.69;;;9.34;78.99
113;BME280;45999;48.808;9.182;2022-12-29T01:01:07;97639.28;;;9.32;78.31
113;BME280;45999;48.808;9.182;2022-12-29T01:03:35;97634.44;;;9.29;78.63
113;BME280;45999;48.808;9.182;2022-12-29T01:06:05;97643.03;;;9.24;79.86
113;BME280;45999;48.808;9.182;2022-12-29T01:08:32;97646.06;;;9.28;79.18
113;BME280;45999;48.808;9.182;2022-12-29T01:11:06;97647.06;;;9.27;79.39
113;BME280;45999;48.808;9.182;2022-12-29T01:13:32;97651.22;;;9.23;79.86
113;BME280;45999;48.808;9.182;2022-12-29T01:15:59;97655.72;;;9.40;79.18
113;BME280;45999;48.808;9.182;2022-12-29T01:18:26;97654.81;;;9.28;79.08
113;BME280;45999;48.808;9.182;2022-12-29T01:21:04;97659.97;;;9.23;80.47
113;BME280;45999;48.808;9.182;2022-12-29T01:23:31;97655.22;;;9.32;79.51
113;BME280;45999;48.808;9.182;2022-12-29T01:26:08;97663.25;;;9.25;80.58
113;BME280;45999;48.808;9.182;2022-12-29T01:28:35;97661.31;;;9.32;78.92
113;BME280;45999;48.808;9.182;2022-12-29T01:31:03;97656.91;;;9.26;80.16
113;BME280;45999;48.808;9.182;2022-12-29T01:33:30;97657.53;;;9.22;80.54
113;BME280;45999;48.808;9.182;2022-12-29T01:36:03;97656.28;;;9.24;80.54
113;BME280;45999;48.808;9.182;2022-12-29T01:38:31;97657.94;;;9.25;80.56
113;BME280;45999;48.808;9.182;2022-12-29T01:40:57;97653.94;;;9.16;80.61
113;BME280;45999;48.808;9.182;2022-12-29T01:46:37;97655.22;;;9.32;80.40
113;BME280;45999;48.808;9.182;2022-12-29T01:51:40;97649.44;;;9.17;80.47
113;BME280;45999;48.808;9.182;2022-12-29T01:54:16;97662.75;;;9.10;81.24
113;BME280;45999;48.808;9.182;2022-12-29T01:56:44;97665.19;;;9.12;81.63
113;BME280;45999;48.808;9.182;2022-12-29T01:59:15;97650.97;;;9.06;82.49
113;BME280;45999;48.808;9.182;2022-12-29T02:01:44;97649.34;;;9.05;82.03
113;BME280;45999;48.808;9.182;2022-12-29T02:04:11;97643.31;;;8.98;82.59
113;BME280;45999;48.808;9.182;2022-12-29T02:06:46;97646.75;;;8.99;82.67
113;BME280;45999;48.808;9.182;2022-12-29T02:09:14;97646.53;;;9.00;82.26
113;BME280;45999;48.808;9.182;2022-12-29T02:11:40;97643.16;;;8.93;83.81
113;BME280;45999;48.808;9.182;2022-12-29T02:14:11;97636.88;;;8.88;84.39
113;BME280;45999;48.808;9.182;2022-12-29T02:27:36;97630.66;;;8.76;85.59
113;BME280;45999;48.808;9.182;2022-12-29T02:35:35;97628.47;;;8.73;85.97
113;BME280;45999;48.808;9.182;2022-12-29T02:46:23;97602.69;;;8.80;85.04
113;BME280;45999;48.808;9.182;2022-12-29T02:51:44;97613.47;;;8.85;83.65
113;BME280;45999;48.808;9.182;2022-12-29T02:54:13;97616.56;;;8.82;84.77
113;BME280;45999;48.808;9.182;2022-12-29T02:56:59;97615.97;;;8.98;83.39
113;BME280;45999;48.808;9.182;2022-12-29T02:59:26;97616.34;;;9.01;82.61
113;BME280;45999;48.808;9.182;2022-12-29T03:02:15;97614.06;;;8.87;85.82
113;BME280;45999;48.808;9.182;2022-12-29T03:13:30;97616.09;;;8.85;86.02
113;BME280;45999;48.808;9.182;2022-12-29T03:16:45;97614.22;;;8.92;84.96
113;BME280;45999;48.808;9.182;2022-12-29T03:19:32;97611.56;;;8.92;83.59
113;BME280;45999;48.808;9.182;2022-12-29T03:22:04;97601.38;;;8.89;84.85
113;BME280;45999;48.808;9.182;2022-12-29T03:24:52;97593.59;;;8.94;84.59
113;BME280;45999;48.808;9.182;2022-12-29T03:27:29;97588.16;;;9.07;82.84
113;BME280;45999;48.808;9.182;2022-12-29T03:30:01;97586.09;;;9.09;83.02
113;BME280;45999;48.808;9.182;2022-12-29T03:32:36;97585.22;;;9.15;84.02
113;BME280;45999;48.808;9.182;2022-12-29T03:35:05;97589.91;;;9.13;83.17
113;BME280;45999;48.808;9.182;2022-12-29T03:37:40;97590.06;;;9.18;84.30
113;BME280;45999;48.808;9.182;2022-12-29T03:40:07;97591.56;;;9.32;82.71
113;BME280;45999;48.808;9.182;2022-12-29T03:42:35;97592.13;;;9.34;82.13
113;BME280;45999;48.808;9.182;2022-12-29T03:45:04;97575.47;;;9.27;83.56
113;BME280;45999;48.808;9.182;2022-12-29T03:47:31;97574.13;;;9.36;82.16
113;BME280;45999;48.808;9.182;2022-12-29T03:49:57;97567.06;;;9.30;83.36
113;BME280;45999;48.808;9.182;2022-12-29T03:52:24;97563.69;;;9.41;82.46
113;BME280;45999;48.808;9.182;2022-12-29T03:54:50;97563.59;;;9.47;81.71
113;BME280;45999;48.808;9.182;2022-12-29T03:57:17;97562.13;;;9.33;82.97
113;BME280;45999;48.808;9.182;2022-12-29T03:59:43;97570.34;;;9.32;82.68
113;BME280;45999;48.808;9.182;2022-12-29T04:02:09;97573.28;;;9.24;83.27
113;BME280;45999;48.808;9.182;2022-12-29T04:04:36;97572.91;;;9.20;83.33
113;BME280;45999;48.808;9.182;2022-12-29T04:07:02;97579.69;;;9.16;84.57
113;BME280;45999;48.808;9.182;2022-12-29T04:09:28;97575.84;;;9.30;83.86
113;BME280;45999;48.808;9.182;2022-12-29T04:11:56;97570.38;;;9.43;83.08
113;BME280;45999;48.808;9.182;2022-12-29T04:14:22;97566.63;;;9.33;83.58
113;BME280;45999;48.808;9.182;2022-12-29T04:16:49;97569.06;;;9.34;84.29
113;BME280;45999;48.808;9.182;2022-12-29T04:19:15;97592.31;;;9.68;82.45
113;BME280;45999;48.808;9.182;2022-12-29T04:21:41;97600.81;;;10.06;80.00
113;BME280;45999;48.808;9.182;2022-12-29T04:24:07;97605.06;;;10.48;77.74
113;BME280;45999;48.808;9.182;2022-12-29T04:26:33;97605.50;;;10.57;77.29
113;BME280;45999;48.808;9.182;2022-12-29T04:29:03;97596.75;;;10.56;77.62
113;BME280;45999;48.808;9.182;2022-12-29T04:31:31;97598.13;;;10.59;77.57
113;BME280;45999;48.808;9.182;2022-12-29T04:34:00;97587.41;;;10.65;77.72
113;BME280;45999;48.808;9.182;2022-12-29T04:36:27;97594.09;;;10.91;76.36
113;BME280;45999;48.808;9.182;2022-12-29T04:38:53;97574.66;;;10.79;77.65
113;BME280;45999;48.808;9.182;2022-12-29T04:41:19;97572.25;;;10.66;77.91
113;BME280;45999;48.808;9.182;2022-12-29T04:43:48;97572.34;;;10.48;79.15
113;BME280;45999;48.808;9.182;2022-12-29T04:46:19;97581.44;;;10.29;80.02
113;BME280;45999;48.808;9.182;2022-12-29T04:48:49;97592.91;;;10.41;79.38
113;BME280;45999;48.808;9.182;2022-12-29T04:51:15;97579.97;;;10.56;78.47
113;BME280;45999;48.808;9.182;2022-12-29T04:53:41;97581.72;;;10.62;79.11
113;BME280;45999;48.808;9.182;2022-12-29T04:56:09;97584.84;;;10.59;78.53
113;BME280;45999;48.808;9.182;2022-12-29T04:58:38;97593.06;;;10.69;78.45
113;BME280;45999;48.808;9.182;2022-12-29T05:01:05;97587.41;;;10.65;78.55
113;BME280;45999;48.808;9.182;2022-12-29T05:03:34;97582.06;;;10.65;79.12
113;BME280;45999;48.808;9.182;2022-12-29T05:06:00;97590.16;;;10.59;79.31
113;BME280;45999;48.808;9.182;2022-12-29T05:08:28;97571.56;;;10.70;79.38
113;BME280;45999;48.808;9.182;2022-12-29T05:10:54;97571.44;;;10.54;80.88
113;BME280;45999;48.808;9.182;2022-12-29T05:13:20;97568.91;;;10.59;79.96
113;BME280;45999;48.808;9.182;2022-12-29T05:15:53;97570.50;;;10.94;78.22
113;BME280;45999;48.808;9.182;2022-12-29T05:18:20;97565.88;;;10.90;78.51
113;BME280;45999;48.808;9.182;2022-12-29T05:20:47;97565.31;;;10.88;78.65
113;BME280;45999;48.808;9.182;2022-12-29T05:23:15;97564.16;;;10.72;79.63
113;BME280;45999;48.808;9.182;2022-12-29T05:25:46;97545.53;;;10.61;79.98
113;BME280;45999;48.808;9.182;2022-12-29T05:28:14;97561.59;;;10.54;80.51
113;BME280;45999;48.808;9.182;2022-12-29T05:30:50;97563.47;;;10.54;80.73
113;BME280;45999;48.808;9.182;2022-12-29T05:33:23;97562.88;;;10.86;78.54
113;BME280;45999;48.808;9.182;2022-12-29T05:35:53;97572.13;;;10.84;78.99
113;BME280;45999;48.808;9.182;2022-12-29T05:38:19;97587.63;;;10.87;78.91
113;BME280;45999;48.808;9.182;2022-12-29T05:40:45;97570.38;;;10.89;78.35
113;BME280;45999;48.808;9.182;2022-12-29T05:43:12;97569.47;;;10.84;78.71
113;BME280;45999;48.808;9.182;2022-12-29T05:45:38;97569.81;;;10.76;79.11
113;BME280;45999;48.808;9.182;2022-12-29T05:48:05;97564.16;;;10.61;80.34
113;BME280;45999;48.808;9.182;2022-12-29T05:50:31;97565.19;;;10.83;78.99
113;BME280;45999;48.808;9.182;2022-12-29T05:52:57;97564.38;;;10.71;79.48
113;BME280;45999;48.808;9.182;2022-12-29T05:55:24;97574.44;;;10.69;79.50
113;BME280;45999;48.808;9.182;2022-12-29T05:57:50;97571.06;;;10.85;78.92
113;BME280;45999;48.808;9.182;2022-12-29T06:00:16;97568.19;;;10.75;79.69
113;BME280;45999;48.808;9.182;2022-12-29T06:02:43;97567.63;;;10.61;80.40
113;BME280;45999;48.808;9.182;2022-12-29T06:05:09;97563.69;;;10.52;81.13
113;BME280;45999;48.808;9.182;2022-12-29T06:07:36;97554.22;;;10.45;81.00
113;BME280;45999;48.808;9.182;2022-12-29T06:10:04;97529.91;;;10.30;82.31
113;BME280;45999;48.808;9.182;2022-12-29T06:12:30;97535.72;;;10.50;80.09
113;BME280;45999;48.808;9.182;2022-12-29T06:14:57;97521.63;;;10.49;80.48
113;BME280;45999;48.808;9.182;2022-12-29T06:17:23;97524.28;;;10.49;80.32
113;BME280;45999;48.808;9.182;2022-12-29T06:19:49;97536.28;;;10.40;80.80
113;BME280;45999;48.808;9.182;2022-12-29T06:22:16;97543.22;;;10.30;81.25
113;BME280;45999;48.808;9.182;2022-12-29T06:24:42;97550.63;;;10.51;79.79
113;BME280;45999;48.808;9.182;2022-12-29T06:27:09;97553.75;;;10.48;80.36
113;BME280;45999;48.808;9.182;2022-12-29T06:29:35;97552.00;;;10.30;81.38
113;BME280;45999;48.808;9.182;2022-12-29T06:32:03;97549.78;;;10.27;81.19
113;BME280;45999;48.808;9.182;2022-12-29T06:34:29;97558.34;;;10.29;81.89
113;BME280;45999;48.808;9.182;2022-12-29T06:36:55;97552.00;;;10.42;80.34
113;BME280;45999;48.808;9.182;2022-12-29T06:39:22;97563.09;;;10.50;79.98
113;BME280;45999;48.808;9.182;2022-12-29T06:41:52;97554.66;;;10.42;80.38
113;BME280;45999;48.808;9.182;2022-12-29T06:44:18;97555.81;;;10.34;80.79
113;BME280;45999;48.808;9.182;2022-12-29T06:46:45;97565.81;;;10.21;80.96
113;BME280;45999;48.808;9.182;2022-12-29T06:49:11;97561.44;;;10.15;81.36
113;BME280;45999;48.808;9.182;2022-12-29T06:51:37;97552.19;;;10.06;81.98
113;BME280;45999;48.808;9.182;2022-12-29T06:54:04;97556.38;;;9.95;83.09
113;BME280;45999;48.808;9.182;2022-12-29T06:56:30;97555.66;;;9.77;84.19
113;BME280;45999;48.808;9.182;2022-12-29T06:58:57;97558.50;;;9.64;84.34
113;BME280;45999;48.808;9.182;2022-12-29T07:01:25;97565.13;;;9.55;84.14
113;BME280;45999;48.808;9.182;2022-12-29T07:03:51;97558.06;;;9.49;84.22
113;BME280;45999;48.808;9.182;2022-12-29T07:06:18;97553.47;;;9.56;83.31
113;BME280;45999;48.808;9.182;2022-12-29T07:08:44;97559.00;;;9.54;83.23
113;BME280;45999;48.808;9.182;2022-12-29T07:11:10;97569.72;;;9.48;83.58
113;BME280;45999;48.808;9.182;2022-12-29T07:13:37;97569.34;;;9.44;83.87
113;BME280;45999;48.808;9.182;2022-12-29T07:16:10;97576.13;;;9.40;83.60
113;BME280;45999;48.808;9.182;2022-12-29T07:18:36;97568.03;;;9.35;83.57
113;BME280;45999;48.808;9.182;2022-12-29T07:21:03;97568.69;;;9.31;83.67
113;BME280;45999;48.808;9.182;2022-12-29T07:23:30;97577.31;;;9.26;84.61
113;BME280;45999;48.808;9.182;2022-12-29T07:26:02;97576.22;;;9.16;85.17
113;BME280;45999;48.808;9.182;2022-12-29T07:28:29;97572.75;;;9.15;84.76
113;BME280;45999;48.808;9.182;2022-12-29T07:30:58;97574.69;;;9.08;85.42
113;BME280;45999;48.808;9.182;2022-12-29T07:33:24;97569.59;;;9.07;85.96
113;BME280;45999;48.808;9.182;2022-12-29T07:35:51;97572.66;;;9.04;85.32
113;BME280;45999;48.808;9.182;2022-12-29T07:38:17;97573.50;;;9.22;84.46
113;BME280;45999;48.808;9.182;2022-12-29T07:40:44;97566.66;;;9.15;84.77
113;BME280;45999;48.808;9.182;2022-12-29T07:43:10;97571.06;;;9.21;84.95
113;BME280;45999;48.808;9.182;2022-12-29T07:45:36;97583.06;;;9.23;84.92
113;BME280;45999;48.808;9.182;2022-12-29T07:48:04;97574.75;;;9.20;84.94
113;BME280;45999;48.808;9.182;2022-12-29T07:50:33;97574.59;;;9.15;84.97
113;BME280;45999;48.808;9.182;2022-12-29T07:52:59;97576.00;;;9.17;85.41
113;BME280;45999;48.808;9.182;2022-12-29T07:55:26;97572.91;;;9.20;85.41
113;BME280;45999;48.808;9.182;2022-12-29T07:57:53;97577.81;;;9.35;84.20
113;BME280;45999;48.808;9.182;2022-12-29T08:00:20;97574.22;;;9.47;83.07
113;BME280;45999;48.808;9.182;2022-12-29T08:02:47;97574.44;;;9.46;84.39
113;BME280;45999;48.808;9.182;2022-12-29T08:05:13;97586.22;;;9.50;84.60
113;BME280;45999;48.808;9.182;2022-12-29T08:07:42;97589.25;;;9.53;83.53
113;BME280;45999;48.808;9.182;2022-12-29T08:10:10;97592.94;;;9.52;84.30
113;BME280;45999;48.808;9.182;2022-12-29T08:12:40;97591.94;;;9.65;82.62
113;BME280;45999;48.808;9.182;2022-12-29T08:15:08;97597.81;;;9.67;83.48
113;BME280;45999;48.808;9.182;2022-12-29T08:17:35;97602.78;;;9.63;83.92
113;BME280;45999;48.808;9.182;2022-12-29T08:20:02;97613.63;;;9.62;83.92
113;BME280;45999;48.808;9.182;2022-12-29T08:22:28;97606.19;;;9.70;84.37
113;BME280;45999;48.808;9.182;2022-12-29T08:24:55;97600.91;;;9.82;82.81
113;BME280;45999;48.808;9.182;2022-12-29T08:27:21;97605.69;;;10.03;81.15
113;BME280;45999;48.808;9.182;2022-12-29T08:29:48;97598.97;;;10.18;80.69
113;BME280;45999;48.808;9.182;2022-12-29T08:32:14;97601.16;;;10.10;80.83
113;BME280;45999;48.808;9.182;2022-12-29T08:34:41;97597.31;;;10.06;81.65
113;BME280;45999;48.808;9.182;2022-12-29T08:37:07;97591.91;;;10.12;81.56
113;BME280;45999;48.808;9.182;2022-12-29T08:39:33;97592.44;;;10.03;82.25
113;BME280;45999;48.808;9.182;2022-12-29T08:42:00;97583.81;;;10.07;81.34
113;BME280;45999;48.808;9.182;2022-12-29T08:44:26;97578.44;;;10.25;80.15
113;BME280;45999;48.808;9.182;2022-12-29T08:46:53;97587.78;;;10.16;81.59
113;BME280;45999;48.808;9.182;2022-12-29T08:49:19;97597.97;;;10.01;83.27
113;BME280;45999;48.808;9.182;2022-12-29T08:51:45;97588.16;;;10.02;82.56
113;BME280;45999;48.808;9.182;2022-12-29T08:54:12;97588.47;;;10.23;80.41
113;BME280;45999;48.808;9.182;2022-12-29T08:56:38;97586.72;;;10.17;80.99
113;BME280;45999;48.808;9.182;2022-12-29T08:59:05;97592.28;;;10.27;80.90
113;BME280;45999;48.808;9.182;2022-12-29T09:01:31;97593.97;;;10.10;82.59
113;BME280;45999;48.808;9.182;2022-12-29T09:03:58;97594.69;;;10.17;81.53
113;BME280;45999;48.808;9.182;2022-12-29T09:06:25;97606.00;;;10.13;81.76
113;BME280;45999;48.808;9.182;2022-12-29T09:08:53;97610.16;;;10.09;82.10
113;BME280;45999;48.808;9.182;2022-12-29T09:11:23;97619.41;;;10.06;83.76
113;BME280;45999;48.808;9.182;2022-12-29T09:13:49;97614.03;;;10.24;82.25
113;BME280;45999;48.808;9.182;2022-12-29T09:16:17;97628.69;;;10.27;82.97
113;BME280;45999;48.808;9.182;2022-12-29T09:18:44;97631.59;;;10.37;82.42
113;BME280;45999;48.808;9.182;2022-12-29T09:21:11;97611.53;;;10.52;81.97
113;BME280;45999;48.808;9.182;2022-12-29T09:23:39;97623.56;;;10.66;81.42
113;BME280;45999;48.808;9.182;2022-12-29T09:26:05;97631.44;;;10.84;79.06
113;BME280;45999;48.808;9.182;2022-12-29T09:28:32;97624.03;;;10.98;78.37
113;BME280;45999;48.808;9.182;2022-12-29T09:30:59;97625.78;;;11.16;78.66
113;BME280;45999;48.808;9.182;2022-12-29T09:33:26;97629.94;;;11.23;77.29
113;BME280;45999;48.808;9.182;2022-12-29T09:35:55;97633.75;;;11.27;77.23
113;BME280;45999;48.808;9.182;2022-12-29T09:38:23;97639.84;;;11.39;76.10
113;BME280;45999;48.808;9.182;2022-12-29T09:40:59;97638.00;;;11.40;77.60
113;BME280;45999;48.808;9.182;2022-12-29T09:43:53;97629.78;;;11.41;77.17
113;BME280;45999;48.808;9.182;2022-12-29T09:51:48;97631.66;;;11.80;74.37
113;BME280;45999;48.808;9.182;2022-12-29T09:54:24;97628.13;;;12.03;74.38
113;BME280;45999;48.808;9.182;2022-12-29T09:56:55;97625.66;;;12.13;72.88
113;BME280;45999;48.808;9.182;2022-12-29T09:59:27;97625.97;;;12.16;73.84
113;BME280;45999;48.808;9.182;2022-12-29T10:02:08;97634.50;;;12.02;73.36
113;BME280;45999;48.808;9.182;2022-12-29T10:04:40;97623.19;;;11.95;74.83
113;BME280;45999;48.808;9.182;2022-12-29T10:07:17;97617.53;;;11.91;74.12
113;BME280;45999;48.808;9.182;2022-12-29T10:15:27;97622.66;;;11.81;75.26
113;BME280;45999;48.808;9.182;2022-12-29T10:20:53;97617.34;;;12.26;71.97
113;BME280;45999;48.808;9.182;2022-12-29T10:26:18;97624.59;;;12.58;71.10
113;BME280;45999;48.808;9.182;2022-12-29T10:28:58;97640.53;;;12.70;69.87
113;BME280;45999;48.808;9.182;2022-12-29T10:31:40;97627.81;;;12.77;69.05
113;BME280;45999;48.808;9.182;2022-12-29T10:34:25;97634.75;;;12.61;70.12
113;BME280;45999;48.808;9.182;2022-12-29T10:36:58;97635.50;;;12.57;71.69
113;BME280;45999;48.808;9.182;2022-12-29T10:39:33;97622.16;;;12.57;71.08
113;BME280;45999;48.808;9.182;2022-12-29T10:44:51;97625.00;;;12.83;70.00
113;BME280;45999;48.808;9.182;2022-12-29T10:47:20;97620.19;;;12.85;71.31
113;BME280;45999;48.808;9.182;2022-12-29T10:49:49;97615.03;;;12.95;70.15
113;BME280;45999;48.808;9.182;2022-12-29T10:52:17;97620.88;;;13.09;69.11
113;BME280;45999;48.808;9.182;2022-12-29T10:54:49;97618.34;;;13.19;68.83
113;BME280;45999;48.808;9.182;2022-12-29T10:59:57;97621.53;;;13.37;68.11
113;BME280;45999;48.808;9.182;2022-12-29T11:05:13;97616.09;;;13.49;69.01
113;BME280;45999;48.808;9.182;2022-12-29T11:07:47;97612.97;;;13.35;67.21
113;BME280;45999;48.808;9.182;2022-12-29T11:13:00;97612.78;;;13.42;66.32
113;BME280;45999;48.808;9.182;2022-12-29T11:15:40;97620.91;;;13.30;67.99
113;BME280;45999;48.808;9.182;2022-12-29T11:20:44;97631.75;;;13.40;67.07
113;BME280;45999;48.808;9.182;2022-12-29T11:23:29;97627.38;;;13.34;69.11
113;BME280;45999;48.808;9.182;2022-12-29T11:28:42;97629.31;;;13.39;65.94
113;BME280;45999;48.808;9.182;2022-12-29T11:31:09;97617.03;;;13.38;65.74
113;BME280;45999;48.808;9.182;2022-12-29T11:33:38;97631.47;;;13.42;65.81
113;BME280;45999;48.808;9.182;2022-12-29T11:36:16;97624.63;;;13.29;67.15
113;BME280;45999;48.808;9.182;2022-12-29T11:38:49;97629.72;;;13.31;66.92
113;BME280;45999;48.808;9.182;2022-12-29T11:41:34;97645.19;;;13.12;67.34
113;BME280;45999;48.808;9.182;2022-12-29T11:44:03;97639.78;;;13.07;67.29
113;BME280;45999;48.808;9.182;2022-12-29T11:46:34;97640.53;;;13.03;66.85
113;BME280;45999;48.808;9.182;2022-12-29T11:49:03;97638.47;;;12.93;67.41
113;BME280;45999;48.808;9.182;2022-12-29T11:51:38;97632.09;;;12.78;73.98
113;BME280;45999;48.808;9.182;2022-12-29T11:54:14;97643.47;;;12.40;79.66
113;BME280;45999;48.808;9.182;2022-12-29T11:56:43;97650.69;;;12.12;84.37
113;BME280;45999;48.808;9.182;2022-12-29T12:01:56;97642.34;;;11.69;90.71
113;BME280;45999;48.808;9.182;2022-12-29T12:04:30;97640.75;;;11.56;94.20
113;BME280;45999;48.808;9.182;2022-12-29T12:07:05;97643.63;;;11.55;95.13
113;BME280;45999;48.808;9.182;2022-12-29T12:09:45;97642.28;;;11.41;98.54
113;BME280;45999;48.808;9.182;2022-12-29T12:12:28;97637.06;;;11.46;95.84
113;BME280;45999;48.808;9.182;2022-12-29T12:14:58;97634.06;;;11.42;98.55
113;BME280;45999;48.808;9.182;2022-12-29T12:17:30;97618.34;;;11.29;100.00
113;BME280;45999;48.808;9.182;2022-12-29T12:20:26;97621.19;;;11.51;95.54
113;BME280;45999;48.808;9.182;2022-12-29T12:25:45;97623.69;;;11.80;90.29
113;BME280;45999;48.808;9.182;2022-12-29T12:28:21;97632.13;;;11.89;89.71
113;BME280;45999;48.808;9.182;2022-12-29T12:30:55;97634.50;;;12.02;88.85
113;BME280;45999;48.808;9.182;2022-12-29T12:33:54;97624.13;;;12.17;86.61
113;BME280;45999;48.808;9.182;2022-12-29T12:36:48;97618.41;;;12.25;85.09
113;BME280;45999;48.808;9.182;2022-12-29T12:39:22;97630.31;;;12.34;85.56
113;BME280;45999;48.808;9.182;2022-12-29T12:47:51;97607.34;;;12.33;83.88
113;BME280;45999;48.808;9.182;2022-12-29T12:50:27;97602.91;;;12.38;84.33
113;BME280;45999;48.808;9.182;2022-12-29T12:58:05;97601.81;;;12.67;84.20
113;BME280;45999;48.808;9.182;2022-12-29T13:06:50;97591.38;;;12.82;85.56
113;BME280;45999;48.808;9.182;2022-12-29T13:09:38;97591.84;;;12.79;85.42
113;BME280;45999;48.808;9.182;2022-12-29T13:20:39;97584.50;;;12.86;84.71
113;BME280;45999;48.808;9.182;2022-12-29T13:23:33;97594.28;;;12.81;85.35
113;BME280;45999;48.808;9.182;2022-12-29T13:26:11;97580.38;;;12.62;85.46
113;BME280;45999;48.808;9.182;2022-12-29T13:34:06;97589.50;;;12.33;87.56
113;BME280;45999;48.808;9.182;2022-12-29T13:36:43;97579.56;;;12.29;86.00
113;BME280;45999;48.808;9.182;2022-12-29T13:39:13;97587.97;;;12.21;85.60
113;BME280;45999;48.808;9.182;2022-12-29T13:41:46;97582.88;;;12.19;86.70
113;BME280;45999;48.808;9.182;2022-12-29T13:44:19;97588.28;;;12.24;85.97
113;BME280;45999;48.808;9.182;2022-12-29T13:46:49;97573.91;;;12.25;85.64
113;BME280;45999;48.808;9.182;2022-12-29T13:49:20;97582.13;;;12.24;86.59
113;BME280;45999;48.808;9.182;2022-12-29T13:51:52;97584.31;;;12.27;86.13
113;BME280;45999;48.808;9.182;2022-12-29T13:57:10;97589.16;;;12.13;88.03
113;BME280;45999;48.808;9.182;2022-12-29T13:59:48;97577.13;;;12.11;87.73
113;BME280;45999;48.808;9.182;2022-12-29T14:05:04;97584.31;;;12.10;88.33
113;BME280;45999;48.808;9.182;2022-12-29T14:07:38;97587.06;;;12.15;87.67
113;BME280;45999;48.808;9.182;2022-12-29T14:10:06;97582.69;;;12.09;88.92
113;BME280;45999;48.808;9.182;2022-12-29T14:12:40;97584.94;;;12.17;88.01
113;BME280;45999;48.808;9.182;2022-12-29T14:17:39;97590.91;;;12.08;89.50
113;BME280;45999;48.808;9.182;2022-12-29T14:20:17;97594.56;;;12.02;89.93
113;BME280;45999;48.808;9.182;2022-12-29T14:28:29;97591.38;;;12.05;89.25
113;BME280;45999;48.808;9.182;2022-12-29T14:30:58;97593.25;;;12.04;88.93
113;BME280;45999;48.808;9.182;2022-12-29T14:33:27;97602.41;;;11.97;89.77
113;BME280;45999;48.808;9.182;2022-12-29T14:35:55;97590.88;;;11.91;90.84
113;BME280;45999;48.808;9.182;2022-12-29T14:38:27;97596.53;;;11.95;89.56
113;BME280;45999;48.808;9.182;2022-12-29T14:41:24;97591.03;;;11.85;90.23
113;BME280;45999;48.808;9.182;2022-12-29T14:43:58;97601.38;;;11.58;93.46
113;BME280;45999;48.808;9.182;2022-12-29T14:46:43;97603.94;;;11.53;93.60
113;BME280;45999;48.808;9.182;2022-12-29T14:49:16;97607.31;;;11.49;93.91
113;BME280;45999;48.808;9.182;2022-12-29T14:51:45;97597.81;;;11.53;93.16
113;BME280;45999;48.808;9.182;2022-12-29T14:57:03;97593.28;;;11.53;93.27
113;BME280;45999;48.808;9.182;2022-12-29T14:59:32;97587.03;;;11.59;92.82
113;BME280;45999;48.808;9.182;2022-12-29T15:02:01;97591.41;;;11.77;89.94
113;BME280;45999;48.808;9.182;2022-12-29T15:04:31;97589.56;;;11.77;89.57
113;BME280;45999;48.808;9.182;2022-12-29T15:06:59;97591.88;;;11.74;89.65
113;BME280;45999;48.808;9.182;2022-12-29T15:09:34;97582.63;;;11.53;92.47
113;BME280;45999;48.808;9.182;2022-12-29T15:14:54;97585.13;;;11.32;93.72
113;BME280;45999;48.808;9.182;2022-12-29T15:17:24;97575.56;;;11.19;94.62
113;BME280;45999;48.808;9.182;2022-12-29T15:19:52;97577.63;;;11.17;95.00
113;BME280;45999;48.808;9.182;2022-12-29T15:22:19;97575.00;;;10.94;96.68
113;BME280;45999;48.808;9.182;2022-12-29T15:24:46;97573.63;;;10.91;97.50
113;BME280;45999;48.808;9.182;2022-12-29T15:27:16;97592.34;;;10.85;98.33
113;BME280;45999;48.808;9.182;2022-12-29T15:29:45;97592.81;;;10.82;98.18
113;BME280;45999;48.808;9.182;2022-12-29T15:34:43;97591.06;;;10.99;95.75
113;BME280;45999;48.808;9.182;2022-12-29T15:37:17;97607.84;;;10.99;95.24
113;BME280;45999;48.808;9.182;2022-12-29T15:39:44;97613.97;;;11.23;93.24
113;BME280;45999;48.808;9.182;2022-12-29T15:44:49;97649.44;;;11.40;91.51
113;BME280;45999;48.808;9.182;2022-12-29T15:47:24;97650.13;;;11.47;92.14
113;BME280;45999;48.808;9.182;2022-12-29T15:50:01;97656.06;;;11.03;97.54
113;BME280;45999;48.808;9.182;2022-12-29T15:52:31;97666.56;;;10.75;100.00
113;BME280;45999;48.808;9.182;2022-12-29T15:54:59;97673.09;;;10.49;100.00
113;BME280;45999;48.808;9.182;2022-12-29T15:57:28;97664.16;;;10.32;100.00
113;BME280;45999;48.808;9.182;2022-12-29T15:59:55;97677.88;;;10.18;100.00
113;BME280;45999;48.808;9.182;2022-12-29T16:02:23;97675.44;;;10.16;100.00